Terminal Aerodrome Forecast
Issued by NWS

Current Version | Previous Version | Graphics & Text | Print | Product List | Glossary On
Versions: 1 2 3 4 5 6 7 8 9 10 11 12 13 14 15 16 17 18 19
511
FTUS41 KPBZ 261741
TAFHLG
TAF
KHLG 261741Z 2618/2718 20013KT P6SM BKN050
     FM261900 14012G18KT 6SM -SHRA BKN050
     FM262000 16012G18KT P6SM BKN035
     FM262300 18008KT 6SM -SHRA OVC015
     FM270100 18005KT P6SM VCSH OVC015
     FM270700 22006KT P6SM OVC015=

USA.gov is the U.S. government's official web portal to all federal, state and local government web resources and services.